createdAt,value
2022-08-17T00:00:00.000Z,5.68
2022-08-17T00:15:00.000Z,5.28
2022-08-17T00:30:00.000Z,5.14
2022-08-17T00:45:00.000Z,5.21
2022-08-17T01:00:00.000Z,5.35
2022-08-17T01:15:00.000Z,5.34
2022-08-17T01:30:00.000Z,5.36
2022-08-17T01:45:00.000Z,5.41
2022-08-17T02:00:00.000Z,5.51
2022-08-17T02:15:00.000Z,5.19
2022-08-17T02:30:00.000Z,5.41
2022-08-17T02:45:00.000Z,5.35
2022-08-17T03:00:00.000Z,5.24
2022-08-17T03:15:00.000Z,5.53
2022-08-17T03:30:00.000Z,5.31
2022-08-17T03:45:00.000Z,5.74
2022-08-17T04:00:00.000Z,5.48
2022-08-17T04:15:00.000Z,5.28
2022-08-17T04:30:00.000Z,5.54
2022-08-17T04:45:00.000Z,5.38
2022-08-17T05:00:00.000Z,5.21
2022-08-17T05:15:00.000Z,5.14
2022-08-17T05:30:00.000Z,5.13
2022-08-17T05:45:00.000Z,5.71
2022-08-17T06:00:00.000Z,7.42
2022-08-17T06:15:00.000Z,5.05
2022-08-17T06:30:00.000Z,5.12
2022-08-17T06:45:00.000Z,5.06
2022-08-17T07:00:00.000Z,4.91
2022-08-17T07:15:00.000Z,4.41
2022-08-17T07:30:00.000Z,3.51
2022-08-17T07:45:00.000Z,3.38
2022-08-17T08:00:00.000Z,3.62
2022-08-17T08:15:00.000Z,3.28
2022-08-17T08:30:00.000Z,3.27
2022-08-17T08:45:00.000Z,3.44
2022-08-17T09:00:00.000Z,3.49
2022-08-17T09:15:00.000Z,5.67
2022-08-17T09:30:00.000Z,4.58
2022-08-17T09:45:00.000Z,4.33
2022-08-17T10:00:00.000Z,3.91
2022-08-17T10:15:00.000Z,4.35
2022-08-17T10:30:00.000Z,6.65
2022-08-17T10:45:00.000Z,4.25
2022-08-17T11:00:00.000Z,3.66
2022-08-17T11:15:00.000Z,3.96
2022-08-17T11:30:00.000Z,5.71
2022-08-17T11:45:00.000Z,5.13
2022-08-17T12:00:00.000Z,5.38
2022-08-17T12:15:00.000Z,4.22
2022-08-17T12:30:00.000Z,3.48
2022-08-17T12:45:00.000Z,4.49
2022-08-17T13:00:00.000Z,3.8
2022-08-17T13:15:00.000Z,3.91
2022-08-17T13:30:00.000Z,4.12
2022-08-17T13:45:00.000Z,4.42
2022-08-17T14:00:00.000Z,3.74
2022-08-17T14:15:00.000Z,3.64
2022-08-17T14:30:00.000Z,3.68
2022-08-17T14:45:00.000Z,4.05
2022-08-17T15:15:00.000Z,4
2022-08-17T15:15:00.000Z,4.71
2022-08-17T15:30:00.000Z,3.73
2022-08-17T15:45:00.000Z,4.01
2022-08-17T16:00:00.000Z,3.78
2022-08-17T16:15:00.000Z,4.21
2022-08-17T16:30:00.000Z,4.05
2022-08-17T16:45:00.000Z,4.28
2022-08-17T17:00:00.000Z,4.73
2022-08-17T17:15:00.000Z,5.33
2022-08-17T17:30:00.000Z,5.22
2022-08-17T17:45:00.000Z,5.19
2022-08-17T18:00:00.000Z,5.19
2022-08-17T18:15:00.000Z,5.27
2022-08-17T18:30:00.000Z,5.26
2022-08-17T18:45:00.000Z,6.14
2022-08-17T19:00:00.000Z,6.02
2022-08-17T19:15:00.000Z,5.64
2022-08-17T19:30:00.000Z,6.62
2022-08-17T19:45:00.000Z,6.48
2022-08-17T20:00:00.000Z,7.76
2022-08-17T20:15:00.000Z,7.08
2022-08-17T20:30:00.000Z,7.79
2022-08-17T20:45:00.000Z,8.2
2022-08-17T21:00:00.000Z,6.96
2022-08-17T21:15:00.000Z,7.07
2022-08-17T21:30:00.000Z,7.49
2022-08-17T21:45:00.000Z,7.35
2022-08-17T22:00:00.000Z,7.35
2022-08-17T22:15:00.000Z,7.22
2022-08-17T22:30:00.000Z,7.73
2022-08-17T22:45:00.000Z,7.96
2022-08-17T23:00:00.000Z,7.67
2022-08-17T23:15:00.000Z,7.21
2022-08-17T23:30:00.000Z,7.4
2022-08-17T23:45:00.000Z,7.79
